Time;durP1;ratioP1;P1;durP2;ratioP2;P2;SDS_P1;SDS_P2;PMS_P1;PMS_P2;Temp;Humidity;BMP_temperature;BMP_pressure;BME280_temperature;BME280_humidity;BME280_pressure;Samples;Min_cycle;Max_cycle;Signal;HPM_P1;HPM_P2
2022/12/02 00:03:55;;;;;;;102.70;81.90;;;20.20;49.40;;;;;;4835635;55;21017;-29
2022/12/02 00:09:05;;;;;;;100.20;80.93;;;20.20;49.40;;;;;;4748352;55;21570;-28
2022/12/02 00:14:34;;;;;;;98.35;79.05;;;20.20;49.40;;;;;;4695174;59;21052;-28
2022/12/02 00:19:35;;;;;;;97.57;78.75;;;20.20;49.40;;;;;;4881583;55;20997;-34
2022/12/02 00:24:35;;;;;;;98.80;78.20;;;20.20;49.40;;;;;;4897816;55;21000;-37
2022/12/02 00:29:36;;;;;;;97.12;77.85;;;20.20;49.30;;;;;;4694184;59;21496;-35
2022/12/02 00:34:37;;;;;;;94.97;76.47;;;20.20;49.30;;;;;;4695089;59;21534;-31
2022/12/02 00:39:38;;;;;;;93.12;75.62;;;20.20;49.30;;;;;;4889577;55;21043;-35
2022/12/02 00:49:58;;;;;;;90.35;73.85;;;20.20;49.40;;;;;;4984111;55;21594;-38
2022/12/02 00:54:59;;;;;;;85.12;71.00;;;20.20;49.40;;;;;;5001587;55;21031;-30
2022/12/02 00:59:59;;;;;;;93.37;73.50;;;20.20;49.30;;;;;;4952941;55;21063;-38
2022/12/02 01:05:00;;;;;;;90.15;72.50;;;20.20;49.20;;;;;;4891780;55;21075;-36
2022/12/02 01:10:01;;;;;;;84.75;68.37;;;20.20;49.30;;;;;;4918071;55;21602;-38
2022/12/02 01:15:03;;;;;;;88.18;70.07;;;20.20;49.20;;;;;;4790126;55;21166;-35
2022/12/02 01:20:05;;;;;;;86.12;68.12;;;20.10;49.10;;;;;;4787359;55;21024;-38
2022/12/02 01:25:06;;;;;;;82.68;65.22;;;20.20;49.20;;;;;;5170208;55;21068;-36
2022/12/02 01:30:08;;;;;;;88.22;70.93;;;20.20;49.20;;;;;;5170272;55;20988;-37
2022/12/02 01:35:09;;;;;;;84.03;68.70;;;20.20;49.20;;;;;;5125792;55;20976;-34
2022/12/02 01:40:11;;;;;;;83.35;66.30;;;20.20;49.20;;;;;;4763006;55;21008;-37
2022/12/02 01:45:12;;;;;;;79.70;64.85;;;20.20;49.10;;;;;;4902595;55;21513;-37
2022/12/02 01:50:16;;;;;;;84.05;68.12;;;20.20;49.10;;;;;;4915606;55;20968;-28
2022/12/02 01:55:21;;;;;;;80.15;64.72;;;20.20;49.10;;;;;;4804838;55;21004;-33
2022/12/02 02:00:22;;;;;;;79.82;62.92;;;20.20;49.20;;;;;;4965006;55;21063;-28
2022/12/02 02:05:31;;;;;;;78.28;62.80;;;20.10;49.60;;;;;;4741239;55;21040;-35
2022/12/02 02:10:33;;;;;;;81.95;65.22;;;20.10;49.10;;;;;;5012299;55;20996;-32
2022/12/02 02:15:37;;;;;;;74.07;59.70;;;20.10;49.00;;;;;;4695505;59;21060;-27
2022/12/02 02:20:40;;;;;;;73.10;59.78;;;20.10;49.10;;;;;;4695390;59;21071;-38
2022/12/02 02:25:47;;;;;;;75.55;59.40;;;20.10;49.00;;;;;;4755770;55;21072;-36
2022/12/02 02:30:48;;;;;;;74.33;60.53;;;20.10;49.00;;;;;;4787243;55;20996;-33
2022/12/02 02:35:49;;;;;;;76.93;61.47;;;20.20;49.00;;;;;;4941487;55;21004;-34
2022/12/02 02:40:51;;;;;;;71.87;58.92;;;20.10;49.00;;;;;;4715714;55;20981;-33
2022/12/02 02:45:53;;;;;;;72.12;57.47;;;20.10;49.00;;;;;;4758420;55;21063;-34
2022/12/02 02:50:55;;;;;;;73.47;58.08;;;20.10;49.00;;;;;;4899707;55;21068;-36
2022/12/02 02:55:56;;;;;;;71.32;58.65;;;20.10;48.90;;;;;;4895533;55;21486;-38
2022/12/02 03:01:17;;;;;;;72.12;56.75;;;20.10;49.00;;;;;;4942371;55;21368;-36
2022/12/02 03:06:18;;;;;;;70.07;56.88;;;20.10;48.90;;;;;;5169723;55;21055;-34
2022/12/02 03:11:19;;;;;;;66.62;54.58;;;20.10;49.00;;;;;;4940543;55;21008;-29
2022/12/02 03:16:23;;;;;;;65.75;53.78;;;20.10;49.00;;;;;;4999752;55;21027;-34
2022/12/02 03:21:25;;;;;;;68.40;56.17;;;20.10;48.90;;;;;;4757890;55;21534;-37
2022/12/02 03:26:27;;;;;;;66.80;54.45;;;20.10;48.80;;;;;;5169730;55;21020;-36
2022/12/02 03:31:29;;;;;;;67.65;54.80;;;20.10;48.80;;;;;;5082211;55;21614;-28
2022/12/02 03:36:30;;;;;;;61.70;51.65;;;20.10;48.80;;;;;;4809981;55;21474;-36
2022/12/02 03:41:31;;;;;;;63.70;52.95;;;20.10;48.80;;;;;;5167658;55;21119;-37
2022/12/02 03:46:32;;;;;;;63.03;51.17;;;20.10;48.80;;;;;;4694400;59;21060;-34
2022/12/02 03:51:33;;;;;;;62.88;51.83;;;20.10;48.80;;;;;;4716388;55;21024;-41
2022/12/02 03:56:39;;;;;;;62.05;50.10;;;20.10;48.80;;;;;;4730188;55;21008;-38
2022/12/02 04:01:39;;;;;;;59.40;48.92;;;20.10;48.90;;;;;;4697165;55;20993;-35
2022/12/02 04:06:41;;;;;;;60.50;50.60;;;20.10;48.80;;;;;;4802923;55;21020;-35
2022/12/02 04:11:42;;;;;;;61.22;50.38;;;20.10;48.80;;;;;;4756216;55;21016;-37
2022/12/02 04:16:43;;;;;;;63.80;50.60;;;20.10;48.80;;;;;;4695109;55;21016;-29
2022/12/02 04:21:43;;;;;;;60.35;49.92;;;20.10;49.00;;;;;;4740486;55;21055;-31
2022/12/02 04:26:44;;;;;;;58.67;48.78;;;20.10;48.90;;;;;;5169817;55;21088;-33
2022/12/02 04:31:45;;;;;;;59.15;49.05;;;20.10;49.00;;;;;;4702116;55;21061;-36
2022/12/02 04:36:46;;;;;;;57.08;47.22;;;20.10;49.00;;;;;;4695163;59;21052;-37
2022/12/02 04:41:47;;;;;;;55.88;46.63;;;20.10;49.10;;;;;;4727394;55;21016;-32
2022/12/02 04:46:47;;;;;;;54.63;45.80;;;20.10;49.20;;;;;;4907667;55;21343;-38
2022/12/02 04:51:48;;;;;;;55.38;46.37;;;20.10;49.30;;;;;;4862973;55;21119;-35
2022/12/02 04:56:49;;;;;;;55.58;46.13;;;20.10;49.30;;;;;;4810215;55;21534;-34
2022/12/02 05:01:50;;;;;;;54.80;45.90;;;20.10;49.40;;;;;;4793526;55;21020;-36
2022/12/02 05:06:51;;;;;;;53.63;43.80;;;20.10;49.40;;;;;;4792239;55;21074;-39
2022/12/02 05:11:51;;;;;;;54.38;44.85;;;20.10;49.70;;;;;;4853687;55;21011;-39
2022/12/02 05:16:52;;;;;;;55.20;45.75;;;20.10;49.70;;;;;;4742591;55;21005;-33
2022/12/02 05:21:53;;;;;;;51.08;44.25;;;20.10;49.50;;;;;;4741245;55;21063;-35
2022/12/02 05:26:54;;;;;;;53.58;44.22;;;20.10;49.50;;;;;;4804440;55;21008;-35
2022/12/02 05:31:55;;;;;;;49.75;42.28;;;20.10;49.60;;;;;;4786688;55;21015;-29
2022/12/02 05:36:55;;;;;;;51.08;42.30;;;20.10;49.80;;;;;;4840562;55;21018;-37
2022/12/02 05:42:04;;;;;;;48.28;41.20;;;20.10;49.60;;;;;;4783789;55;21566;-36
2022/12/02 05:47:10;;;;;;;51.33;43.25;;;20.10;49.60;;;;;;5080509;55;21060;-33
2022/12/02 05:52:26;;;;;;;51.10;41.50;;;20.10;49.60;;;;;;4695632;59;20992;-32
2022/12/02 05:57:29;;;;;;;49.95;41.47;;;20.10;49.50;;;;;;4813943;55;21004;-36
2022/12/02 06:02:37;;;;;;;48.87;40.92;;;20.10;49.60;;;;;;4755825;55;21001;-33
2022/12/02 06:07:38;;;;;;;47.62;40.70;;;20.10;49.70;;;;;;4923376;55;21040;-35
2022/12/02 06:12:39;;;;;;;49.13;40.38;;;20.00;49.50;;;;;;4766696;55;21558;-31
2022/12/02 06:17:40;;;;;;;48.55;40.38;;;20.00;49.50;;;;;;4714851;55;21498;-33
2022/12/02 06:22:41;;;;;;;47.35;40.22;;;20.10;49.60;;;;;;4745607;55;21007;-36
2022/12/02 06:27:42;;;;;;;49.13;41.17;;;20.00;49.50;;;;;;4882969;55;21012;-28
2022/12/02 06:32:52;;;;;;;49.92;41.92;;;20.10;49.60;;;;;;4725475;55;21047;-29
2022/12/02 06:37:56;;;;;;;51.10;42.22;;;20.00;50.20;;;;;;4726327;55;21115;-29
2022/12/02 06:42:59;;;;;;;46.40;40.33;;;20.10;49.60;;;;;;4727109;55;21012;-28
2022/12/02 06:48:20;;;;;;;48.75;40.75;;;20.10;49.50;;;;;;4792356;55;21048;-39
2022/12/02 06:53:35;;;;;;;49.35;41.35;;;20.00;49.40;;;;;;4815929;55;21012;-31
2022/12/02 07:00:34;;;;;;;48.75;41.37;;;20.00;49.50;;;;;;5169975;55;21501;-32
2022/12/02 07:05:35;;;;;;;52.13;41.83;;;20.10;49.50;;;;;;4858170;55;21469;-33
2022/12/02 07:10:35;;;;;;;48.10;39.38;;;20.00;49.50;;;;;;4695076;59;21040;-37
2022/12/02 07:15:36;;;;;;;49.17;41.30;;;20.00;49.40;;;;;;4714509;55;21004;-30
2022/12/02 07:20:38;;;;;;;49.28;41.63;;;20.00;49.40;;;;;;4695316;59;21116;-28
2022/12/02 07:25:54;;;;;;;49.47;42.30;;;20.00;49.50;;;;;;4695110;59;21068;-28
2022/12/02 07:30:59;;;;;;;51.47;41.10;;;20.00;49.40;;;;;;4838361;55;21458;-28
2022/12/02 07:36:00;;;;;;;49.58;42.20;;;20.00;49.40;;;;;;4853261;55;21060;-26
2022/12/02 07:41:00;;;;;;;49.75;42.10;;;20.10;49.50;;;;;;4694631;59;21597;-28
2022/12/02 07:46:01;;;;;;;52.33;43.15;;;20.10;49.50;;;;;;4933000;55;21179;-32
2022/12/02 07:51:02;;;;;;;50.60;40.40;;;20.00;49.40;;;;;;4758171;55;21035;-32
2022/12/02 07:56:03;;;;;;;129.77;87.53;;;20.00;49.40;;;;;;5025805;55;21015;-25
2022/12/02 08:01:04;;;;;;;132.35;92.88;;;20.00;46.30;;;;;;4694565;59;21020;-29
2022/12/02 08:06:06;;;;;;;140.40;98.20;;;19.90;46.20;;;;;;4694686;59;21047;-31
2022/12/02 08:11:06;;;;;;;147.52;104.70;;;19.90;46.20;;;;;;4695282;56;21092;-30
2022/12/02 08:16:07;;;;;;;134.90;99.18;;;19.90;46.50;;;;;;4809437;55;21149;-33
2022/12/02 08:21:08;;;;;;;133.32;91.95;;;20.00;47.30;;;;;;4694511;59;21064;-32
2022/12/02 08:26:09;;;;;;;128.62;91.05;;;20.10;47.90;;;;;;4694277;59;21067;-29
2022/12/02 08:31:10;;;;;;;136.20;91.57;;;20.20;48.30;;;;;;4735755;55;21543;-30
2022/12/02 08:36:10;;;;;;;129.57;91.18;;;20.20;48.50;;;;;;4809410;55;21008;-33
2022/12/02 08:41:11;;;;;;;118.97;86.25;;;20.30;48.70;;;;;;4713586;55;21075;-29
2022/12/02 08:46:13;;;;;;;122.25;90.62;;;20.30;48.80;;;;;;4727921;55;21119;-29
2022/12/02 08:51:14;;;;;;;126.00;86.80;;;20.40;49.20;;;;;;4709323;55;21055;-29
2022/12/02 08:56:14;;;;;;;129.18;90.18;;;20.40;49.40;;;;;;4736823;55;21048;-25
2022/12/02 09:01:15;;;;;;;131.57;92.75;;;20.40;49.50;;;;;;4707456;55;21396;-30
2022/12/02 09:06:16;;;;;;;136.40;90.55;;;20.50;49.70;;;;;;4694674;59;21496;-28
2022/12/02 09:11:18;;;;;;;132.77;92.12;;;20.50;49.70;;;;;;4798428;55;21008;-27
2022/12/02 09:16:18;;;;;;;138.40;92.25;;;20.50;49.70;;;;;;4694974;59;21116;-30
2022/12/02 09:21:19;;;;;;;134.32;93.95;;;20.50;49.80;;;;;;4700604;55;21012;-27
2022/12/02 09:26:20;;;;;;;142.27;96.03;;;20.50;49.80;;;;;;4760239;55;21032;-30
2022/12/02 09:31:21;;;;;;;155.75;104.30;;;20.60;49.90;;;;;;4699580;55;21493;-26
2022/12/02 09:36:22;;;;;;;160.80;110.37;;;20.60;49.70;;;;;;4729089;55;21017;-26
2022/12/02 09:41:23;;;;;;;156.55;114.00;;;20.50;49.20;;;;;;4693500;55;21076;-26
2022/12/02 09:46:24;;;;;;;162.85;116.03;;;20.50;49.10;;;;;;4720722;55;21049;-30
2022/12/02 09:51:25;;;;;;;168.20;121.03;;;20.50;49.00;;;;;;4969517;55;21013;-26
2022/12/02 09:56:26;;;;;;;164.02;118.20;;;20.50;48.90;;;;;;4768503;55;21053;-26
2022/12/02 10:01:27;;;;;;;176.32;126.50;;;20.50;48.90;;;;;;4703257;55;21040;-29
2022/12/02 10:06:28;;;;;;;185.20;129.23;;;20.50;48.80;;;;;;4764607;55;21585;-28
2022/12/02 10:11:32;;;;;;;182.70;133.73;;;20.50;49.00;;;;;;4761750;55;21024;-29
2022/12/02 10:16:34;;;;;;;186.48;129.38;;;20.50;49.00;;;;;;4749741;55;21016;-25
2022/12/02 10:21:35;;;;;;;193.57;136.20;;;20.50;49.10;;;;;;4738740;55;22306;-26
2022/12/02 10:26:50;;;;;;;191.60;139.65;;;20.50;49.40;;;;;;4704825;55;21040;-27
2022/12/02 10:32:19;;;;;;;194.68;144.45;;;20.50;49.30;;;;;;4850095;55;21059;-25
2022/12/02 10:37:26;;;;;;;201.30;146.32;;;20.50;49.40;;;;;;4694878;55;21517;-25
2022/12/02 10:42:26;;;;;;;196.32;143.87;;;20.50;49.50;;;;;;4694641;59;21020;-25
2022/12/02 10:47:27;;;;;;;206.32;150.38;;;20.50;49.60;;;;;;4701950;55;21044;-27
2022/12/02 10:52:43;;;;;;;202.32;148.82;;;20.50;49.60;;;;;;4694529;59;21805;-26
2022/12/02 10:57:45;;;;;;;204.80;150.32;;;20.50;50.30;;;;;;4698970;55;21016;-27
2022/12/02 11:02:58;;;;;;;214.40;157.12;;;20.50;49.80;;;;;;4694580;59;21107;-25
2022/12/02 11:08:05;;;;;;;217.07;159.20;;;20.50;49.80;;;;;;4809947;55;21032;-27
2022/12/02 11:16:16;;;;;;;213.02;159.30;;;20.50;50.40;;;;;;4910733;55;21124;-26
2022/12/02 11:21:50;;;;;;;216.77;160.00;;;20.60;50.50;;;;;;4711536;55;21020;-25
2022/12/02 11:28:12;;;;;;;216.32;161.37;;;20.60;49.90;;;;;;4748723;55;21051;-25
2022/12/02 11:34:00;;;;;;;224.93;160.75;;;20.60;49.90;;;;;;4914716;55;21017;-27
2022/12/02 11:39:07;;;;;;;209.18;152.85;;;20.60;49.90;;;;;;4713109;55;21486;-29
2022/12/02 11:44:20;;;;;;;220.82;164.23;;;20.60;50.20;;;;;;4806380;55;21072;-29
2022/12/02 11:49:41;;;;;;;219.00;164.25;;;20.60;50.30;;;;;;4693770;59;21095;-34
2022/12/02 11:54:49;;;;;;;222.35;165.12;;;20.60;50.40;;;;;;4693411;59;21521;-29
2022/12/02 11:59:50;;;;;;;222.23;166.65;;;20.70;50.40;;;;;;4728832;55;21083;-28
2022/12/02 12:05:00;;;;;;;221.25;167.00;;;20.70;50.20;;;;;;4748931;55;21008;-29
2022/12/02 12:10:01;;;;;;;230.25;170.90;;;20.60;50.00;;;;;;4864741;55;20992;-26
2022/12/02 12:15:05;;;;;;;219.02;166.32;;;20.60;49.90;;;;;;4788018;55;21036;-31
2022/12/02 12:20:51;;;;;;;218.63;163.27;;;20.60;49.90;;;;;;4807115;55;21008;-27
2022/12/02 12:25:52;;;;;;;226.75;171.57;;;20.60;49.90;;;;;;4721945;55;21103;-25
2022/12/02 12:30:53;;;;;;;230.20;173.62;;;20.60;49.80;;;;;;4749163;55;21473;-32
2022/12/02 12:35:55;;;;;;;224.82;171.93;;;20.50;49.50;;;;;;4704808;55;21079;-25
2022/12/02 12:40:56;;;;;;;215.27;165.57;;;20.60;49.90;;;;;;4694351;55;21084;-27
2022/12/02 12:45:57;;;;;;;217.98;165.88;;;20.60;50.20;;;;;;4782931;55;21505;-27
2022/12/02 12:50:58;;;;;;;220.75;169.98;;;20.60;50.50;;;;;;4694412;59;21004;-26
2022/12/02 12:55:59;;;;;;;232.35;175.23;;;20.70;50.70;;;;;;4777680;55;21177;-26
2022/12/02 13:01:00;;;;;;;223.98;169.68;;;20.70;50.70;;;;;;4870601;55;21004;-25
2022/12/02 13:06:01;;;;;;;228.55;175.50;;;20.70;50.80;;;;;;4694165;56;21020;-32
2022/12/02 13:11:02;;;;;;;219.87;166.27;;;20.70;50.90;;;;;;4754505;55;21127;-33
2022/12/02 13:16:03;;;;;;;226.15;173.98;;;20.80;51.10;;;;;;4693951;59;21043;-31
2022/12/02 13:21:04;;;;;;;218.85;165.77;;;20.80;51.20;;;;;;4790001;55;21468;-31
2022/12/02 13:26:05;;;;;;;221.13;172.37;;;20.80;51.40;;;;;;4710836;55;21024;-28
2022/12/02 13:31:06;;;;;;;216.00;162.70;;;20.80;51.30;;;;;;4741144;55;20996;-34
2022/12/02 13:36:07;;;;;;;214.52;164.13;;;20.80;51.30;;;;;;4694428;59;21028;-27
2022/12/02 13:41:08;;;;;;;213.62;164.77;;;20.80;51.40;;;;;;4910948;55;21077;-25
2022/12/02 13:46:09;;;;;;;220.25;169.90;;;20.80;51.40;;;;;;4714925;55;21024;-35
2022/12/02 13:51:10;;;;;;;227.35;172.82;;;20.80;51.50;;;;;;4695057;59;21068;-29
2022/12/02 13:56:11;;;;;;;221.77;165.93;;;20.80;51.40;;;;;;4879348;55;21067;-31
2022/12/02 14:01:13;;;;;;;228.70;171.75;;;20.90;51.50;;;;;;4938048;55;21027;-30
2022/12/02 14:06:17;;;;;;;232.37;176.68;;;20.90;51.50;;;;;;4717981;55;21561;-28
2022/12/02 14:11:18;;;;;;;238.15;181.25;;;20.90;51.50;;;;;;4711300;55;21088;-32
2022/12/02 14:16:19;;;;;;;236.80;176.80;;;20.90;51.50;;;;;;4694916;59;21088;-33
2022/12/02 14:21:20;;;;;;;236.52;176.60;;;20.90;51.50;;;;;;4722111;55;21550;-29
2022/12/02 14:26:22;;;;;;;240.55;177.85;;;20.90;51.50;;;;;;4694426;59;21108;-28
2022/12/02 14:31:22;;;;;;;244.75;183.43;;;20.90;51.40;;;;;;4695194;56;21089;-31
2022/12/02 14:36:23;;;;;;;235.55;180.32;;;20.90;51.20;;;;;;4792759;55;20980;-32
2022/12/02 14:41:24;;;;;;;231.90;174.50;;;20.90;51.40;;;;;;4715094;55;21473;-35
2022/12/02 14:46:25;;;;;;;226.45;168.57;;;21.00;51.50;;;;;;4730033;55;21542;-30
2022/12/02 14:51:26;;;;;;;227.32;172.10;;;21.00;51.60;;;;;;4720005;55;21474;-34
2022/12/02 14:56:27;;;;;;;225.27;171.13;;;21.00;51.50;;;;;;4694531;59;21009;-32
2022/12/02 15:01:28;;;;;;;217.00;165.25;;;21.00;51.50;;;;;;4717447;55;21024;-30
2022/12/02 15:06:29;;;;;;;303.25;238.57;;;21.00;51.40;;;;;;4694588;59;21071;-27
2022/12/02 15:11:30;;;;;;;306.85;238.87;;;20.90;49.40;;;;;;4694752;55;21032;-27
2022/12/02 15:16:31;;;;;;;280.25;217.18;;;20.70;48.90;;;;;;4865677;55;20995;-31
2022/12/02 15:21:31;;;;;;;277.75;211.00;;;20.60;49.50;;;;;;4694363;59;21028;-32
2022/12/02 15:26:32;;;;;;;276.23;209.62;;;20.70;49.90;;;;;;4705900;55;21126;-36
2022/12/02 15:31:33;;;;;;;267.13;204.05;;;20.80;50.40;;;;;;4694699;59;21012;-31
2022/12/02 15:36:34;;;;;;;255.48;196.60;;;20.80;50.80;;;;;;4694833;55;21052;-28
2022/12/02 15:41:35;;;;;;;254.82;194.45;;;20.80;51.10;;;;;;4956495;55;21029;-35
2022/12/02 15:46:36;;;;;;;257.45;196.80;;;20.80;51.30;;;;;;4694328;59;21574;-28
2022/12/02 15:51:37;;;;;;;250.90;193.07;;;20.80;51.60;;;;;;4737210;55;21036;-33
2022/12/02 15:56:37;;;;;;;244.05;187.85;;;20.80;52.60;;;;;;4779019;55;21450;-32
2022/12/02 16:01:40;;;;;;;237.77;185.00;;;20.90;52.30;;;;;;4709691;55;21493;-35
2022/12/02 16:06:40;;;;;;;237.57;177.93;;;20.90;52.60;;;;;;4767793;55;21566;-34
2022/12/02 16:11:41;;;;;;;234.30;179.40;;;21.00;52.80;;;;;;4729987;55;21035;-30
2022/12/02 16:16:42;;;;;;;239.98;176.80;;;21.00;52.90;;;;;;4763345;55;21051;-26
2022/12/02 16:21:43;;;;;;;226.05;171.00;;;21.00;53.00;;;;;;4857217;55;21040;-31
2022/12/02 16:26:43;;;;;;;223.13;168.32;;;21.10;53.30;;;;;;4761961;55;21493;-29
2022/12/02 16:31:44;;;;;;;224.75;169.50;;;21.10;53.40;;;;;;4946062;55;21019;-29
2022/12/02 16:36:45;;;;;;;229.25;171.48;;;21.10;53.50;;;;;;4748345;55;21007;-35
2022/12/02 16:41:46;;;;;;;222.77;168.30;;;21.10;53.70;;;;;;4831339;55;21059;-31
2022/12/02 16:46:47;;;;;;;220.63;166.37;;;21.10;54.00;;;;;;4764781;55;21119;-29
2022/12/02 16:51:47;;;;;;;219.70;165.32;;;21.10;54.50;;;;;;4744778;55;21008;-31
2022/12/02 16:56:48;;;;;;;215.12;162.43;;;21.10;54.00;;;;;;4754643;55;21027;-34
2022/12/02 17:01:49;;;;;;;217.93;162.52;;;21.10;54.00;;;;;;4694457;59;21072;-31
2022/12/02 17:06:50;;;;;;;213.18;156.80;;;21.10;54.10;;;;;;4754938;55;21087;-32
2022/12/02 17:11:51;;;;;;;204.75;153.55;;;21.10;54.20;;;;;;4850244;55;21039;-26
2022/12/02 17:16:52;;;;;;;209.20;157.73;;;21.20;54.30;;;;;;4718467;55;21644;-34
2022/12/02 17:21:52;;;;;;;207.68;154.15;;;21.20;54.20;;;;;;4704478;55;21091;-31
2022/12/02 17:26:53;;;;;;;215.37;158.52;;;21.10;54.00;;;;;;4693845;55;21084;-32
2022/12/02 17:31:54;;;;;;;216.93;159.60;;;21.00;54.00;;;;;;4738499;55;21023;-32
2022/12/02 17:36:55;;;;;;;209.62;157.52;;;20.90;53.90;;;;;;4798838;55;21016;-28
2022/12/02 17:41:55;;;;;;;211.50;154.87;;;20.90;53.80;;;;;;4697618;55;21016;-30
2022/12/02 17:46:59;;;;;;;208.82;153.50;;;20.80;53.70;;;;;;4710860;55;21501;-31
2022/12/02 17:52:00;;;;;;;206.05;152.20;;;20.80;53.70;;;;;;4836568;55;21055;-37
2022/12/02 17:57:00;;;;;;;206.65;151.98;;;20.80;53.60;;;;;;4694995;59;21012;-37
2022/12/02 18:02:01;;;;;;;208.05;152.80;;;20.70;53.50;;;;;;4702108;55;21059;-34
2022/12/02 18:07:03;;;;;;;201.02;147.18;;;20.70;53.40;;;;;;4695056;56;21450;-32
2022/12/02 18:12:06;;;;;;;210.98;155.37;;;20.70;53.30;;;;;;4761638;55;21489;-33
2022/12/02 18:17:07;;;;;;;201.77;148.38;;;20.70;53.20;;;;;;4720704;55;21064;-35
2022/12/02 18:22:07;;;;;;;208.45;152.93;;;20.60;53.20;;;;;;4815864;55;21526;-34
2022/12/02 18:27:08;;;;;;;203.37;151.27;;;20.60;53.10;;;;;;4769774;55;21019;-38
2022/12/02 18:32:09;;;;;;;206.73;153.77;;;20.60;53.10;;;;;;4746351;55;21560;-33
2022/12/02 18:37:10;;;;;;;206.52;152.68;;;20.60;53.00;;;;;;4760559;55;21149;-35
2022/12/02 18:42:11;;;;;;;204.65;153.32;;;20.60;53.10;;;;;;4719291;55;20995;-36
2022/12/02 18:47:11;;;;;;;210.25;151.40;;;20.60;52.80;;;;;;4714467;55;21044;-30
2022/12/02 18:52:12;;;;;;;203.55;150.07;;;20.60;52.80;;;;;;4798856;55;21553;-26
2022/12/02 18:57:13;;;;;;;204.57;150.23;;;20.50;52.70;;;;;;4761796;55;21067;-28
2022/12/02 19:02:14;;;;;;;201.40;150.40;;;20.50;52.60;;;;;;4965782;55;21127;-32
2022/12/02 19:07:16;;;;;;;199.85;148.38;;;20.60;52.60;;;;;;4832513;55;21501;-33
2022/12/02 19:12:17;;;;;;;205.90;150.45;;;20.50;52.40;;;;;;4766156;55;21469;-31
2022/12/02 19:17:18;;;;;;;193.73;143.45;;;20.50;52.40;;;;;;4954730;55;21055;-36
2022/12/02 19:22:19;;;;;;;201.23;149.90;;;20.50;52.30;;;;;;4857403;55;21127;-32
2022/12/02 19:27:19;;;;;;;206.32;151.40;;;20.50;52.30;;;;;;4695039;59;21075;-30
2022/12/02 19:32:20;;;;;;;202.32;146.30;;;20.50;52.30;;;;;;4725889;55;20992;-35
2022/12/02 19:37:22;;;;;;;197.23;143.82;;;20.50;52.30;;;;;;4695332;56;21007;-35
2022/12/02 19:42:22;;;;;;;197.40;150.00;;;20.50;52.20;;;;;;5089348;55;21489;-34
2022/12/02 19:47:23;;;;;;;199.15;148.25;;;20.50;52.60;;;;;;4834301;55;21092;-34
2022/12/02 19:52:24;;;;;;;194.02;146.07;;;20.50;52.10;;;;;;4806175;55;21068;-30
2022/12/02 19:57:25;;;;;;;195.68;147.55;;;20.50;52.00;;;;;;4863916;55;21012;-29
2022/12/02 20:02:26;;;;;;;191.55;146.75;;;20.50;52.00;;;;;;4862515;55;21000;-33
2022/12/02 20:07:27;;;;;;;204.23;148.62;;;20.50;51.90;;;;;;4749860;55;21020;-28
2022/12/02 20:12:27;;;;;;;195.95;146.62;;;20.40;51.80;;;;;;4838923;55;21482;-33
2022/12/02 20:17:28;;;;;;;191.70;145.70;;;20.50;51.90;;;;;;4751874;55;21142;-31
2022/12/02 20:22:29;;;;;;;197.52;144.82;;;20.40;51.80;;;;;;4850699;55;21035;-29
2022/12/02 20:27:30;;;;;;;198.90;144.75;;;20.40;51.70;;;;;;4763542;55;21020;-29
2022/12/02 20:32:31;;;;;;;197.57;144.13;;;20.40;51.80;;;;;;4807408;55;21075;-27
2022/12/02 20:37:31;;;;;;;189.32;141.43;;;20.40;51.70;;;;;;4726992;55;21005;-35
2022/12/02 20:42:32;;;;;;;190.25;142.37;;;20.40;51.90;;;;;;4895278;55;21019;-31
2022/12/02 20:47:34;;;;;;;194.80;143.27;;;20.40;51.60;;;;;;4906320;55;21091;-34
2022/12/02 20:52:34;;;;;;;191.32;143.50;;;20.40;51.50;;;;;;4753532;55;21020;-32
2022/12/02 20:57:35;;;;;;;188.25;140.25;;;20.40;52.10;;;;;;4799424;55;21020;-37
2022/12/02 21:02:36;;;;;;;182.80;137.50;;;20.40;51.50;;;;;;4854566;55;21540;-33
2022/12/02 21:07:37;;;;;;;190.40;138.88;;;20.40;51.50;;;;;;4722320;55;21485;-32
2022/12/02 21:12:38;;;;;;;189.30;142.30;;;20.40;51.40;;;;;;4892248;55;21012;-38
2022/12/02 21:17:39;;;;;;;191.00;142.48;;;20.40;51.30;;;;;;4975075;55;21020;-34
2022/12/02 21:22:40;;;;;;;178.40;137.05;;;20.40;51.30;;;;;;4967261;55;21012;-35
2022/12/02 21:27:41;;;;;;;178.65;134.63;;;20.40;51.30;;;;;;5169519;55;21080;-37
2022/12/02 21:32:41;;;;;;;186.80;139.37;;;20.40;51.30;;;;;;4964318;55;21123;-37
2022/12/02 21:37:42;;;;;;;175.52;131.12;;;20.40;51.20;;;;;;4707158;55;21087;-36
2022/12/02 21:42:43;;;;;;;185.12;137.62;;;20.40;51.20;;;;;;4819892;55;21028;-33
2022/12/02 21:47:44;;;;;;;178.30;135.85;;;20.40;51.20;;;;;;4712745;55;21043;-35
2022/12/02 21:52:44;;;;;;;180.85;135.75;;;20.40;51.10;;;;;;4758195;55;21474;-29
2022/12/02 21:57:45;;;;;;;176.12;134.00;;;20.40;51.00;;;;;;4694934;59;21506;-35
2022/12/02 22:02:46;;;;;;;172.18;130.63;;;20.40;51.00;;;;;;4777754;55;21017;-27
2022/12/02 22:07:47;;;;;;;171.32;129.30;;;20.40;51.10;;;;;;4797129;55;21024;-28
2022/12/02 22:12:48;;;;;;;175.77;132.05;;;20.40;51.00;;;;;;4811955;55;21076;-31
2022/12/02 22:17:49;;;;;;;174.75;131.30;;;20.40;51.00;;;;;;4813777;55;21067;-27
2022/12/02 22:22:50;;;;;;;165.80;127.90;;;20.40;50.90;;;;;;4695130;59;21068;-29
2022/12/02 22:27:50;;;;;;;163.32;125.95;;;20.40;50.90;;;;;;4721075;55;21462;-29
2022/12/02 22:32:51;;;;;;;169.93;125.90;;;20.40;50.80;;;;;;5123314;55;21095;-30
2022/12/02 22:37:52;;;;;;;160.50;123.65;;;20.40;50.80;;;;;;4929766;55;21020;-35
2022/12/02 22:42:53;;;;;;;161.82;124.82;;;20.40;50.80;;;;;;4946724;55;21009;-36
2022/12/02 22:47:54;;;;;;;163.23;124.38;;;20.40;50.80;;;;;;4782206;55;21072;-36
2022/12/02 22:52:54;;;;;;;158.32;121.95;;;20.30;50.60;;;;;;4695391;59;21076;-37
2022/12/02 22:57:56;;;;;;;155.07;121.20;;;20.30;50.60;;;;;;4768313;55;21004;-33
2022/12/02 23:02:57;;;;;;;157.20;120.62;;;20.30;50.50;;;;;;4939408;55;21474;-37
2022/12/02 23:07:58;;;;;;;156.68;121.00;;;20.30;50.60;;;;;;4738936;55;21060;-37
2022/12/02 23:12:59;;;;;;;157.12;122.10;;;20.30;50.60;;;;;;4695190;59;21028;-35
2022/12/02 23:18:00;;;;;;;159.37;120.57;;;20.30;50.50;;;;;;4761266;55;21008;-33
2022/12/02 23:23:01;;;;;;;149.07;117.18;;;20.30;50.50;;;;;;4728204;55;21075;-33
2022/12/02 23:28:01;;;;;;;145.93;114.15;;;20.30;50.50;;;;;;4813503;55;21096;-37
2022/12/02 23:33:02;;;;;;;152.73;118.18;;;20.30;50.40;;;;;;4757057;55;21498;-36
2022/12/02 23:38:03;;;;;;;144.55;113.03;;;20.30;50.40;;;;;;5023188;55;20996;-35
2022/12/02 23:43:04;;;;;;;146.43;116.70;;;20.30;50.40;;;;;;4879071;55;21020;-34
2022/12/02 23:48:05;;;;;;;142.05;112.35;;;20.30;50.40;;;;;;4717097;55;21155;-35
2022/12/02 23:53:06;;;;;;;148.82;114.62;;;20.30;50.20;;;;;;5022864;55;21000;-36
2022/12/02 23:58:07;;;;;;;142.85;110.70;;;20.30;50.20;;;;;;4739416;55;21004;-37
